Caballo, New Mexico
Current Conditions -  °F | °C
As of 11:53 AM on Sunday 23 Nov 2014 (Local Time) from KTCS Reporting Station
Clear Clear  
Wind Chill: 59°   Ceiling: Unl
Heat Index: 59°   Visibility: 10mi
Dew Point: 21°   Wind: 24mph
Humidity: 23%   Direction: 300°WNW
Pressure: 29.85"   Gusts: 33mph
Location:  32.97°N, 107.31°W
Report Text: KTCS 231853Z AUTO 30021G29KT 10SM CLR 15/M06 A2985 RMK AO2 PK WND 30036/1807 SLP063 T01501061 TSNO
Loading
Personal Weather Stations






























Interactive Weather Map New forecast layout! Learn more

10-Day Weather Forecast

Advertisements
Track Severe Weather on mobile